PAGY/SGY METAR and TAF weather

Enter ICAO airport designator
Station Type Date Time Source
PAGY METAR 2022/01/26 08:16 UTC NOAA

PAGY 260816Z AUTO 20015KT 10SM BKN014 OVC019 04/02 A3027 RMK AO2 T00390022 TSNO


Station Type Date Time Source
PAGY Decoded METAR 2022/01/26 08:16 UTC NOAA

SKAGWAY AIRPORT, AK, United States (PAGY) 59-28N 135-19W 5M
Jan 26, 2022 - 03:16 AM EST / 2022.01.26 0816 UTC
Wind: from the SSW (200 degrees) at 17 MPH (15 KT):0
Visibility: 10 mile(s):0
Sky conditions: overcast
Temperature: 39.0 F (3.9 C)
Dew Point: 36.0 F (2.2 C)
Relative Humidity: 88%
Pressure (altimeter): 30.27 in. Hg (1025 hPa)
ob: PAGY 260816Z AUTO 20015KT 10SM BKN014 OVC019 04/02 A3027 RMK AO2 T00390022 TSNO
cycle: 8

Station Type Date Time Source
PAGY TAF 2022/01/26 06:36 UTC NOAA

TAF PAGY 260532Z 2606/2706 20018G28KT P6SM VCSH OVC070
FM261400 21010KT P6SM SCT015 OVC025
FM262100 05010KT P6SM BKN050
AMD LTD TO CLD VIS AND WIND

Example: see airport list